Archival Weather

Tokyo Intl

Tokyo, Japan (RJTT)

Report from: Tuesday, September 19, 2023 10:30 AM JST
Current time: Tuesday, July 16, 2024 11:46 PM JST

Current weather – Weather history – Daily summaries
Weather forecast

Temperature31.0°C (87.8°F)
Heat index34.6°C (94.2°F)
Dew point22.0°C (71.6°F)
Winds 15 kts (7.7 m/s, 17.3 mph) South (190°)
Visibility6.2 mi. (10 km)
Clouds Few clouds 3,000 ft. (914 m)
Altimeter29.91 in.Hg (1013 mB)
Relative humidity59 %
Density altitude2,194 ft. (669 m)
Remarks No significant changes expected in the next two hours
Flight conditions Visual Meteorological Conditions
Raw dataRJTT 190130Z 19015KT 9999 FEW030 31/22 Q1013 NOSIG RMK 1CU030 A2992
An error has occurred. This application may no longer respond until reloaded. Reload 🗙